Terminal Aerodrome Forecast
Issued by NWS

Home | Current Version | Previous Version | Text Only | Print | Product List | Glossary On
Versions: 1 2 3 4 5 6 7 8 9 10 11 12 13 14 15 16 17 18 19 20 21
000
FTUS41 KILN 211400 AAA
TAFLUK
TAF AMD
KLUK 211426Z 2114/2212 10004KT P6SM FEW022 SCT250
      TEMPO 2114/2116 5SM HZ BKN020=

USA.gov is the U.S. government's official web portal to all federal, state and local government web resources and services.